Terminal Aerodrome Forecast
Issued by NWS

Home | Current Version | Previous Version | Text Only | Print | Product List | Glossary On
Versions: 1 2 3 4 5 6 7 8 9 10 11 12 13 14 15 16 17 18 19 20
000
FTUS45 KPSR 281100
TAFSDL
TAF
KSDL 281120Z 2812/2912 VRB03KT P6SM SCT250
     FM282000 21004KT P6SM SCT150 BKN200
     FM290100 00000KT P6SM FEW150=

USA.gov is the U.S. government's official web portal to all federal, state and local government web resources and services.